createdAt,value
2022-09-01T00:01:21.433Z,27.23
2022-09-01T00:03:49.096Z,26.95
2022-09-01T00:06:22.451Z,26.84
2022-09-01T00:08:53.713Z,26.29
2022-09-01T00:11:21.443Z,26.20
2022-09-01T00:13:48.608Z,25.44
2022-09-01T00:16:17.877Z,25.85
2022-09-01T00:18:49.880Z,26.54
2022-09-01T00:21:37.516Z,25.34
2022-09-01T00:24:05.240Z,25.20
2022-09-01T00:26:32.702Z,24.87
2022-09-01T00:28:59.903Z,25.16
2022-09-01T00:31:27.312Z,25.33
2022-09-01T00:33:54.860Z,25.64
2022-09-01T00:36:22.125Z,25.41
2022-09-01T00:38:49.651Z,25.74
2022-09-01T00:41:19.124Z,25.77
2022-09-01T00:43:53.527Z,25.91
2022-09-01T00:46:25.091Z,26.24
2022-09-01T00:48:57.538Z,26.16
2022-09-01T00:51:25.340Z,25.60
2022-09-01T00:53:52.531Z,25.75
2022-09-01T00:56:19.734Z,25.86
2022-09-01T00:58:47.578Z,25.82
2022-09-01T01:01:14.899Z,26.02
2022-09-01T01:03:45.500Z,26.58
2022-09-01T01:06:13.718Z,26.18
2022-09-01T01:08:42.041Z,26.07
2022-09-01T01:11:10.459Z,25.82
2022-09-01T01:13:49.379Z,26.14
2022-09-01T01:16:18.120Z,26.19
2022-09-01T01:18:46.554Z,26.32
2022-09-01T01:21:41.785Z,26.43
2022-09-01T01:24:22.030Z,26.35
2022-09-01T01:26:49.795Z,26.32
2022-09-01T01:29:17.732Z,25.26
2022-09-01T01:31:47.548Z,25.82
2022-09-01T01:34:15.263Z,25.49
2022-09-01T01:36:42.844Z,25.79
2022-09-01T01:39:28.759Z,25.56
2022-09-01T01:41:57.094Z,25.42
2022-09-01T01:44:28.325Z,24.63
2022-09-01T01:46:57.519Z,24.91
2022-09-01T01:49:26.032Z,24.56
2022-09-01T01:51:56.164Z,24.44
2022-09-01T01:54:25.862Z,24.44
2022-09-01T01:56:55.669Z,24.52
2022-09-01T01:59:24.732Z,25.06
2022-09-01T02:01:52.743Z,24.72
2022-09-01T02:04:20.679Z,25.09
2022-09-01T02:06:48.607Z,25.19
2022-09-01T02:09:16.595Z,25.12
2022-09-01T02:11:45.662Z,25.35
2022-09-01T02:14:13.705Z,25.10
2022-09-01T02:16:41.243Z,24.84
2022-09-01T02:19:10.047Z,24.58
2022-09-01T02:21:44.613Z,25.03
2022-09-01T02:24:11.975Z,24.84
2022-09-01T02:26:45.862Z,24.89
2022-09-01T02:29:22.000Z,24.68
2022-09-01T02:31:50.675Z,24.74
2022-09-01T02:34:18.092Z,24.69
2022-09-01T02:36:49.429Z,24.48
2022-09-01T02:39:17.965Z,24.40
2022-09-01T02:41:45.752Z,24.53
2022-09-01T02:44:13.020Z,24.25
2022-09-01T02:46:42.035Z,23.83
2022-09-01T02:49:15.199Z,23.74
2022-09-01T02:51:43.483Z,22.58
2022-09-01T02:54:11.313Z,23.15
2022-09-01T02:56:38.519Z,23.33
2022-09-01T02:59:13.022Z,23.96
2022-09-01T03:01:40.289Z,22.99
2022-09-01T03:04:09.753Z,23.37
2022-09-01T03:06:37.899Z,22.91
2022-09-01T03:09:06.365Z,23.53
2022-09-01T03:11:37.489Z,24.11
2022-09-01T03:14:05.142Z,24.43
2022-09-01T03:16:33.237Z,24.82
2022-09-01T03:19:03.285Z,24.73
2022-09-01T03:21:32.116Z,24.61
2022-09-01T03:24:02.099Z,24.20
2022-09-01T03:26:29.988Z,24.09
2022-09-01T03:28:57.347Z,23.42
2022-09-01T03:31:27.665Z,22.63
2022-09-01T03:36:27.709Z,23.38
2022-09-01T03:38:55.275Z,23.22
2022-09-01T03:41:25.206Z,23.20
2022-09-01T03:43:56.806Z,23.42
2022-09-01T03:46:24.485Z,22.76
2022-09-01T03:48:53.101Z,23.11
2022-09-01T03:51:22.908Z,22.67
2022-09-01T03:53:57.610Z,22.93
2022-09-01T03:56:28.179Z,22.53
2022-09-01T03:58:56.352Z,22.74
2022-09-01T04:01:24.765Z,22.81
2022-09-01T04:03:53.073Z,22.39
2022-09-01T04:06:24.244Z,22.91
2022-09-01T04:08:56.814Z,22.52
2022-09-01T04:11:25.455Z,23.00
2022-09-01T04:13:53.287Z,23.37
2022-09-01T04:16:40.989Z,23.62
2022-09-01T04:19:20.278Z,23.73
2022-09-01T04:21:50.257Z,23.05
2022-09-01T04:24:19.187Z,23.91
2022-09-01T04:26:48.656Z,23.95
2022-09-01T04:29:19.499Z,23.56
2022-09-01T04:31:52.147Z,23.28
2022-09-01T04:34:22.172Z,23.33
2022-09-01T04:36:55.982Z,23.51
2022-09-01T04:39:23.535Z,23.40
2022-09-01T04:41:51.140Z,23.61
2022-09-01T04:44:20.215Z,24.05
2022-09-01T04:46:50.686Z,23.72
2022-09-01T04:49:22.243Z,23.75
2022-09-01T04:51:53.741Z,23.30
2022-09-01T04:54:22.676Z,23.36
2022-09-01T04:56:51.293Z,23.93
2022-09-01T04:59:20.416Z,24.43
2022-09-01T05:01:50.688Z,24.50
2022-09-01T05:04:19.585Z,24.45
2022-09-01T05:06:49.477Z,24.52
2022-09-01T05:09:18.381Z,24.90
2022-09-01T05:11:47.191Z,24.74
2022-09-01T05:14:19.021Z,24.74
2022-09-01T05:16:47.267Z,24.62
2022-09-01T05:19:17.528Z,23.84
2022-09-01T05:21:46.099Z,24.39
2022-09-01T05:24:15.404Z,24.50
2022-09-01T05:26:42.809Z,24.42
2022-09-01T05:29:17.604Z,23.98
2022-09-01T05:31:46.969Z,23.55
2022-09-01T05:34:20.063Z,23.54
2022-09-01T05:36:49.004Z,23.92
2022-09-01T05:39:16.538Z,23.77
2022-09-01T05:41:43.966Z,23.54
2022-09-01T05:44:11.802Z,23.34
2022-09-01T05:46:39.514Z,23.00
2022-09-01T05:49:09.305Z,23.09
2022-09-01T05:51:46.188Z,23.14
2022-09-01T05:54:18.911Z,22.77
2022-09-01T05:56:46.414Z,22.98
2022-09-01T05:59:24.372Z,21.57
2022-09-01T06:01:54.310Z,22.19
2022-09-01T06:04:23.058Z,22.77
2022-09-01T06:07:08.805Z,22.89
2022-09-01T06:09:38.621Z,22.77
2022-09-01T06:12:06.772Z,22.62
2022-09-01T06:14:34.508Z,22.85
2022-09-01T06:17:03.315Z,23.72
2022-09-01T06:19:36.897Z,23.09
2022-09-01T06:22:05.552Z,23.30
2022-09-01T06:24:32.834Z,23.36
2022-09-01T06:27:00.127Z,23.41
2022-09-01T06:29:27.642Z,23.53
2022-09-01T06:31:54.901Z,23.71
2022-09-01T06:34:22.403Z,23.71
2022-09-01T06:36:51.792Z,23.53
2022-09-01T06:39:21.927Z,23.53
2022-09-01T06:41:52.907Z,23.35
2022-09-01T06:44:23.226Z,23.67
2022-09-01T06:46:52.573Z,23.82
2022-09-01T06:49:21.627Z,24.23
2022-09-01T06:51:51.811Z,24.19
2022-09-01T06:54:21.693Z,23.99
2022-09-01T06:56:51.764Z,23.98
2022-09-01T06:59:36.530Z,24.04
2022-09-01T07:02:05.717Z,23.93
2022-09-01T07:04:36.001Z,24.01
2022-09-01T07:13:06.529Z,23.50
2022-09-01T07:18:27.533Z,24.28
2022-09-01T07:21:38.725Z,24.25
2022-09-01T07:24:07.694Z,23.68
2022-09-01T07:26:31.787Z,24.07
2022-09-01T07:29:04.214Z,23.44
2022-09-01T07:34:41.663Z,23.67
2022-09-01T07:39:56.802Z,23.40
2022-09-01T07:42:58.861Z,23.39
2022-09-01T07:45:32.680Z,22.68
2022-09-01T07:48:03.533Z,22.99
2022-09-01T07:51:34.636Z,23.04
2022-09-01T07:53:22.466Z,23.90
2022-09-01T07:55:54.397Z,23.60
2022-09-01T07:58:23.192Z,24.05
2022-09-01T08:00:53.312Z,23.83
2022-09-01T08:03:22.548Z,24.32
2022-09-01T08:05:54.764Z,24.11
2022-09-01T08:08:29.575Z,24.11
2022-09-01T08:11:04.949Z,24.14
2022-09-01T08:13:41.644Z,24.22
2022-09-01T08:16:16.863Z,24.12
2022-09-01T08:18:48.754Z,23.86
2022-09-01T08:21:22.258Z,24.01
2022-09-01T08:23:53.984Z,24.39
2022-09-01T08:26:22.237Z,24.62
2022-09-01T08:28:55.076Z,24.57
2022-09-01T08:31:24.162Z,24.40
2022-09-01T08:33:51.467Z,24.69
2022-09-01T08:36:23.728Z,24.85
2022-09-01T08:38:53.767Z,24.41
2022-09-01T08:41:21.087Z,24.88
2022-09-01T08:43:57.084Z,24.68
2022-09-01T08:46:26.741Z,24.77
2022-09-01T08:51:54.462Z,24.56
2022-09-01T08:54:45.589Z,24.00
2022-09-01T08:57:16.154Z,24.66
2022-09-01T08:59:46.651Z,24.75
2022-09-01T09:02:32.872Z,24.76
2022-09-01T09:05:15.478Z,24.81
2022-09-01T09:07:46.315Z,24.55
2022-09-01T09:10:22.035Z,24.83
2022-09-01T09:13:08.262Z,24.69
2022-09-01T09:15:41.561Z,24.94
2022-09-01T09:18:35.992Z,24.89
2022-09-01T09:21:15.655Z,24.96
2022-09-01T09:23:44.737Z,24.73
2022-09-01T09:26:16.723Z,24.92
2022-09-01T09:28:44.349Z,24.61
2022-09-01T09:31:28.768Z,24.70
2022-09-01T09:33:58.309Z,24.96
2022-09-01T09:36:33.384Z,25.15
2022-09-01T09:39:04.506Z,25.02
2022-09-01T09:41:32.341Z,24.98
2022-09-01T09:44:19.764Z,24.85
2022-09-01T09:46:47.772Z,25.14
2022-09-01T09:49:34.336Z,24.43
2022-09-01T09:52:04.158Z,25.19
2022-09-01T09:54:32.133Z,24.91
2022-09-01T09:57:18.334Z,25.01
2022-09-01T10:00:04.834Z,25.04
2022-09-01T10:02:44.042Z,24.56
2022-09-01T10:05:31.707Z,24.55
2022-09-01T10:07:58.873Z,24.70
2022-09-01T10:10:28.106Z,24.47
2022-09-01T10:12:55.996Z,24.51
2022-09-01T10:15:24.174Z,25.03
2022-09-01T10:18:13.594Z,25.37
2022-09-01T10:20:40.417Z,25.47
2022-09-01T10:23:15.105Z,24.33
2022-09-01T10:25:43.216Z,24.85
2022-09-01T10:28:20.922Z,24.10
2022-09-01T10:30:48.588Z,24.57
2022-09-01T10:33:21.930Z,25.22
2022-09-01T10:35:50.541Z,24.67
2022-09-01T10:38:23.095Z,24.65
2022-09-01T10:41:07.787Z,24.04
2022-09-01T10:43:45.659Z,24.25
2022-09-01T10:46:26.100Z,24.70
2022-09-01T10:48:55.434Z,23.95
2022-09-01T10:51:29.700Z,24.51
2022-09-01T10:54:04.045Z,24.72
2022-09-01T10:56:51.404Z,25.21
2022-09-01T10:59:43.504Z,25.12
2022-09-01T11:02:28.703Z,24.64
2022-09-01T11:04:58.997Z,24.62
2022-09-01T11:07:50.585Z,25.51
2022-09-01T11:10:32.690Z,26.18
2022-09-01T11:13:10.402Z,25.48
2022-09-01T11:15:39.262Z,25.46
2022-09-01T11:18:17.548Z,25.12
2022-09-01T11:20:46.714Z,25.39
2022-09-01T11:23:23.257Z,25.73
2022-09-01T11:28:41.803Z,25.04
2022-09-01T11:31:09.352Z,24.98
2022-09-01T11:33:55.338Z,25.04
2022-09-01T11:36:23.531Z,24.99
2022-09-01T11:38:55.234Z,25.89
2022-09-01T11:41:42.950Z,25.26
2022-09-01T11:44:29.309Z,24.85
2022-09-01T11:47:02.706Z,25.55
2022-09-01T11:49:31.569Z,24.60
2022-09-01T11:52:00.468Z,26.30
2022-09-01T11:54:30.386Z,26.32
2022-09-01T11:56:57.576Z,27.24
2022-09-01T11:59:35.317Z,26.50
2022-09-01T12:02:04.097Z,26.55
2022-09-01T12:04:33.624Z,27.23
2022-09-01T12:07:21.030Z,26.79
2022-09-01T12:09:48.464Z,26.45
2022-09-01T12:12:32.655Z,27.28
2022-09-01T12:15:06.480Z,27.59
2022-09-01T12:17:34.492Z,27.81
2022-09-01T12:20:21.267Z,27.81
2022-09-01T12:22:50.602Z,26.89
2022-09-01T12:25:28.428Z,26.75
2022-09-01T12:27:55.671Z,27.15
2022-09-01T12:30:23.306Z,27.65
2022-09-01T12:32:50.731Z,27.33
2022-09-01T12:35:22.134Z,27.80
2022-09-01T12:37:50.481Z,28.13
2022-09-01T12:40:24.651Z,28.17
2022-09-01T12:42:52.404Z,27.16
2022-09-01T12:45:38.332Z,27.73
2022-09-01T12:48:05.834Z,27.57
2022-09-01T12:50:35.215Z,27.75
2022-09-01T12:53:02.526Z,26.54
2022-09-01T12:58:22.166Z,27.56
2022-09-01T13:01:05.278Z,26.81
2022-09-01T13:03:34.664Z,26.20
2022-09-01T13:06:03.301Z,27.42
2022-09-01T13:08:34.280Z,28.12
2022-09-01T13:11:03.970Z,28.19
2022-09-01T13:13:31.166Z,27.40
2022-09-01T13:16:01.603Z,27.29
2022-09-01T13:18:29.362Z,27.17
2022-09-01T13:20:57.057Z,27.45
2022-09-01T13:23:24.306Z,27.47
2022-09-01T13:25:51.832Z,27.19
2022-09-01T13:28:21.588Z,26.63
2022-09-01T13:31:28.518Z,27.23
2022-09-01T13:36:46.527Z,27.05
2022-09-01T13:39:15.641Z,27.38
2022-09-01T13:41:43.470Z,27.87
2022-09-01T13:44:11.102Z,27.87
2022-09-01T13:49:42.513Z,27.22
2022-09-01T13:52:11.378Z,26.66
2022-09-01T13:54:38.561Z,27.06
2022-09-01T13:57:06.413Z,27.40
2022-09-01T13:59:33.853Z,28.08
2022-09-01T14:02:01.704Z,27.97
2022-09-01T14:04:29.336Z,27.49
2022-09-01T14:06:56.690Z,27.50
2022-09-01T14:09:25.753Z,28.38
2022-09-01T14:11:53.959Z,28.98
2022-09-01T14:14:21.243Z,27.98
2022-09-01T14:16:49.295Z,26.94
2022-09-01T14:19:16.829Z,27.42
2022-09-01T14:21:44.459Z,27.72
2022-09-01T14:24:13.044Z,27.06
2022-09-01T14:26:41.226Z,27.29
2022-09-01T14:29:08.430Z,27.49
2022-09-01T14:31:37.754Z,27.73
2022-09-01T14:34:06.751Z,27.84
2022-09-01T14:36:34.180Z,27.70
2022-09-01T14:39:01.619Z,27.73
2022-09-01T14:41:29.678Z,27.27
2022-09-01T14:44:03.096Z,26.85
2022-09-01T14:46:33.911Z,27.54
2022-09-01T14:49:01.843Z,27.56
2022-09-01T14:54:17.067Z,27.24
2022-09-01T14:57:28.582Z,28.28
2022-09-01T14:59:32.696Z,28.32
2022-09-01T15:01:59.907Z,28.67
2022-09-01T15:04:27.933Z,28.86
2022-09-01T15:06:55.448Z,28.62
2022-09-01T15:09:22.804Z,28.59
2022-09-01T15:11:49.963Z,28.53
2022-09-01T15:14:17.439Z,29.10
2022-09-01T15:16:44.637Z,28.42
2022-09-01T15:19:12.666Z,28.27
2022-09-01T15:21:40.937Z,28.14
2022-09-01T15:24:08.671Z,28.86
2022-09-01T15:26:35.894Z,28.27
2022-09-01T15:29:04.632Z,27.80
2022-09-01T15:31:33.779Z,28.48
2022-09-01T15:34:02.205Z,28.14
2022-09-01T15:36:29.738Z,28.78
2022-09-01T15:38:57.320Z,28.73
2022-09-01T15:41:28.650Z,28.16
2022-09-01T15:43:56.381Z,28.67
2022-09-01T15:46:31.851Z,29.03
2022-09-01T15:49:03.573Z,29.24
2022-09-01T15:51:48.853Z,29.29
2022-09-01T15:54:18.228Z,29.24
2022-09-01T15:56:47.248Z,29.41
2022-09-01T15:59:14.509Z,29.32
2022-09-01T16:01:44.473Z,29.01
2022-09-01T16:04:15.967Z,29.39
2022-09-01T16:06:44.581Z,29.31
2022-09-01T16:09:12.479Z,29.58
2022-09-01T16:11:40.396Z,29.56
2022-09-01T16:14:07.598Z,29.42
2022-09-01T16:16:40.063Z,29.56
2022-09-01T16:19:14.392Z,29.67
2022-09-01T16:21:53.332Z,29.25
2022-09-01T16:24:20.576Z,28.84
2022-09-01T16:26:48.417Z,29.07
2022-09-01T16:29:29.260Z,29.38
2022-09-01T16:31:56.692Z,29.19
2022-09-01T16:34:27.730Z,29.10
2022-09-01T16:37:01.883Z,29.03
2022-09-01T16:39:47.242Z,29.36
2022-09-01T16:42:22.997Z,29.21
2022-09-01T16:44:52.763Z,29.41
2022-09-01T16:47:31.040Z,29.40
2022-09-01T16:50:03.913Z,29.26
2022-09-01T16:52:34.522Z,29.30
2022-09-01T16:55:23.997Z,29.53
2022-09-01T16:58:03.069Z,29.43
2022-09-01T17:00:32.937Z,29.53
2022-09-01T17:03:18.003Z,29.50
2022-09-01T17:06:05.440Z,29.40
2022-09-01T17:08:34.379Z,29.29
2022-09-01T17:11:13.059Z,29.28
2022-09-01T17:13:44.916Z,29.23
2022-09-01T17:16:24.043Z,29.37
2022-09-01T17:18:53.740Z,29.40
2022-09-01T17:21:27.206Z,29.29
2022-09-01T17:24:12.307Z,29.21
2022-09-01T17:26:40.290Z,29.12
2022-09-01T17:29:24.790Z,29.07
2022-09-01T17:31:58.010Z,29.11
2022-09-01T17:34:48.526Z,28.96
2022-09-01T17:37:20.618Z,28.85
2022-09-01T17:39:55.424Z,28.85
2022-09-01T17:42:30.246Z,28.62
2022-09-01T17:45:02.123Z,28.61
2022-09-01T17:47:36.900Z,28.62
2022-09-01T17:50:09.382Z,28.56
2022-09-01T17:52:52.358Z,28.38
2022-09-01T17:55:38.897Z,28.54
2022-09-01T17:58:14.058Z,28.22
2022-09-01T18:00:47.173Z,28.16
2022-09-01T18:03:19.062Z,27.87
2022-09-01T18:05:48.455Z,28.09
2022-09-01T18:08:29.551Z,28.14
2022-09-01T18:10:59.282Z,28.05
2022-09-01T18:13:52.531Z,27.91
2022-09-01T18:16:22.209Z,27.93
2022-09-01T18:18:51.177Z,27.92
2022-09-01T18:21:25.698Z,27.82
2022-09-01T18:23:55.914Z,27.87
2022-09-01T18:26:29.559Z,27.77
2022-09-01T18:28:57.158Z,27.76
2022-09-01T18:31:33.587Z,27.60
2022-09-01T18:34:14.512Z,27.52
2022-09-01T18:36:41.652Z,27.51
2022-09-01T18:39:26.243Z,27.52
2022-09-01T18:42:05.686Z,27.55
2022-09-01T18:44:34.819Z,27.39
2022-09-01T18:47:15.395Z,27.38
2022-09-01T18:49:42.806Z,27.21
2022-09-01T18:52:28.931Z,27.36
2022-09-01T18:55:15.021Z,27.49
2022-09-01T18:57:42.958Z,27.10
2022-09-01T19:00:19.250Z,27.07
2022-09-01T19:02:59.573Z,27.22
2022-09-01T19:05:33.399Z,26.98
2022-09-01T19:08:07.187Z,26.95
2022-09-01T19:10:53.859Z,26.89
2022-09-01T19:13:30.651Z,27.01
2022-09-01T19:16:04.757Z,26.74
2022-09-01T19:18:39.326Z,26.87
2022-09-01T19:21:14.184Z,26.73
2022-09-01T19:23:42.454Z,26.75
2022-09-01T19:26:18.829Z,26.63
2022-09-01T19:28:48.136Z,26.62
2022-09-01T19:31:16.210Z,26.63
2022-09-01T19:33:45.197Z,26.72
2022-09-01T19:36:16.853Z,26.83
2022-09-01T19:38:45.426Z,26.86
2022-09-01T19:41:19.065Z,26.80
2022-09-01T19:43:48.469Z,26.41
2022-09-01T19:46:25.190Z,26.61
2022-09-01T19:48:58.777Z,26.53
2022-09-01T19:51:28.361Z,26.50
2022-09-01T19:53:58.457Z,26.48
2022-09-01T19:56:31.159Z,26.43
2022-09-01T19:59:14.200Z,26.51
2022-09-01T20:02:00.175Z,26.41
2022-09-01T20:04:33.703Z,26.52
2022-09-01T20:07:01.664Z,26.36
2022-09-01T20:09:46.015Z,26.43
2022-09-01T20:12:16.195Z,26.36
2022-09-01T20:14:53.106Z,26.29
2022-09-01T20:17:23.036Z,26.39
2022-09-01T20:19:55.236Z,26.32
2022-09-01T20:22:31.119Z,26.29
2022-09-01T20:25:10.212Z,26.06
2022-09-01T20:27:44.254Z,26.16
2022-09-01T20:30:14.121Z,26.20
2022-09-01T20:32:45.679Z,25.88
2022-09-01T20:35:14.461Z,26.28
2022-09-01T20:37:59.179Z,26.19
2022-09-01T20:40:29.984Z,26.02
2022-09-01T20:43:18.532Z,26.11
2022-09-01T20:45:46.206Z,25.83
2022-09-01T20:48:14.857Z,25.46
2022-09-01T20:51:15.344Z,25.73
2022-09-01T20:53:50.173Z,25.58
2022-09-01T20:56:33.002Z,25.54
2022-09-01T20:59:01.369Z,25.64
2022-09-01T21:01:31.808Z,25.43
2022-09-01T21:04:10.230Z,25.58
2022-09-01T21:06:55.402Z,25.59
2022-09-01T21:09:22.519Z,25.65
2022-09-01T21:11:59.013Z,25.51
2022-09-01T21:14:47.343Z,25.47
2022-09-01T21:17:36.876Z,25.31
2022-09-01T21:20:08.494Z,25.08
2022-09-01T21:22:36.022Z,25.26
2022-09-01T21:25:03.541Z,25.09
2022-09-01T21:27:33.144Z,24.69
2022-09-01T21:30:02.922Z,24.89
2022-09-01T21:32:32.073Z,25.06
2022-09-01T21:34:59.578Z,24.58
2022-09-01T21:37:27.667Z,24.86
2022-09-01T21:39:55.186Z,25.00
2022-09-01T21:42:22.930Z,25.03
2022-09-01T21:44:50.746Z,24.32
2022-09-01T21:47:21.741Z,24.89
2022-09-01T21:49:48.900Z,24.68
2022-09-01T21:52:16.449Z,25.02
2022-09-01T21:54:43.673Z,25.01
2022-09-01T21:57:10.864Z,24.90
2022-09-01T21:59:38.326Z,24.71
2022-09-01T22:02:07.126Z,24.97
2022-09-01T22:04:37.069Z,24.68
2022-09-01T22:07:04.716Z,24.80
2022-09-01T22:09:32.026Z,24.72
2022-09-01T22:11:59.456Z,24.94
2022-09-01T22:14:27.913Z,25.03
2022-09-01T22:16:55.257Z,24.73
2022-09-01T22:19:22.784Z,24.69
2022-09-01T22:21:51.188Z,24.40
2022-09-01T22:24:19.339Z,24.76
2022-09-01T22:26:47.599Z,24.92
2022-09-01T22:29:14.746Z,24.90
2022-09-01T22:31:41.888Z,24.76
2022-09-01T22:34:09.473Z,24.78
2022-09-01T22:36:39.156Z,24.88
2022-09-01T22:39:07.435Z,24.74
2022-09-01T22:41:35.280Z,24.89
2022-09-01T22:44:02.959Z,24.43
2022-09-01T22:46:30.917Z,25.06
2022-09-01T22:48:58.797Z,24.74
2022-09-01T22:51:26.647Z,25.07
2022-09-01T22:53:54.549Z,25.27
2022-09-01T22:56:24.264Z,24.76
2022-09-01T22:58:54.124Z,24.72
2022-09-01T23:01:24.664Z,25.10
2022-09-01T23:03:52.172Z,24.97
2022-09-01T23:06:25.171Z,25.23
2022-09-01T23:08:56.204Z,24.82
2022-09-01T23:11:24.033Z,25.20
2022-09-01T23:13:51.382Z,24.99
2022-09-01T23:16:20.145Z,24.80
2022-09-01T23:18:47.965Z,25.00
2022-09-01T23:21:16.007Z,25.12
2022-09-01T23:23:43.258Z,25.07
2022-09-01T23:26:11.521Z,25.05
2022-09-01T23:28:38.910Z,25.20
2022-09-01T23:31:13.343Z,24.79
2022-09-01T23:33:41.015Z,24.89
2022-09-01T23:36:09.491Z,24.93
2022-09-01T23:38:36.852Z,25.31
2022-09-01T23:41:05.833Z,25.51
2022-09-01T23:43:33.211Z,25.18
2022-09-01T23:46:00.428Z,24.67
2022-09-01T23:48:28.102Z,24.93
2022-09-01T23:50:57.341Z,25.26
2022-09-01T23:53:27.026Z,25.51
2022-09-01T23:55:55.877Z,25.66
2022-09-01T23:58:23.747Z,25.65
